createdAt,value
2019-03-22T00:00:52.773Z,101859.97
2019-03-22T00:01:57.716Z,101860.94
2019-03-22T00:03:02.241Z,101858.70
2019-03-22T00:04:07.007Z,101865.05
2019-03-22T00:05:11.760Z,101865.05
2019-03-22T00:06:16.702Z,101860.12
2019-03-22T00:07:21.135Z,101868.22
2019-03-22T00:08:25.525Z,101866.88
2019-03-22T00:09:29.887Z,101860.14
2019-03-22T00:10:34.649Z,101866.05
2019-03-22T00:11:39.350Z,101865.16
2019-03-22T00:12:44.047Z,101863.83
2019-03-22T00:13:48.799Z,101860.73
2019-03-22T00:14:53.492Z,101861.64
2019-03-22T00:15:58.015Z,101864.35
2019-03-22T00:17:02.856Z,101862.55
2019-03-22T00:18:07.479Z,101869.30
2019-03-22T00:19:12.386Z,101868.85
2019-03-22T00:20:17.018Z,101864.80
2019-03-22T00:21:21.520Z,101860.75
2019-03-22T00:22:26.087Z,101862.55
2019-03-22T00:23:30.594Z,101866.16
2019-03-22T00:24:35.038Z,101866.61
2019-03-22T00:25:39.508Z,101869.31
2019-03-22T00:26:44.838Z,101864.82
2019-03-22T00:27:49.538Z,101871.13
2019-03-22T00:28:54.558Z,101865.77
2019-03-22T00:29:59.367Z,101869.37
2019-03-22T00:31:04.048Z,101870.72
2019-03-22T00:32:08.742Z,101870.27
2019-03-22T00:33:13.717Z,101861.28
2019-03-22T00:34:18.343Z,101868.03
2019-03-22T00:35:23.279Z,101867.14
2019-03-22T00:36:27.898Z,101864.02
2019-03-22T00:37:32.338Z,101856.87
2019-03-22T00:38:37.284Z,101856.87
2019-03-22T00:39:42.375Z,101850.14
2019-03-22T00:40:46.742Z,101848.80
2019-03-22T00:41:51.440Z,101851.99
2019-03-22T00:42:56.575Z,101848.85
2019-03-22T00:44:01.260Z,101848.41
2019-03-22T00:45:07.446Z,101846.61
2019-03-22T00:46:11.895Z,101847.07
2019-03-22T00:47:16.256Z,101841.23
2019-03-22T00:48:20.882Z,101842.14
2019-03-22T00:49:25.571Z,101843.48
2019-03-22T00:50:30.257Z,101839.03
2019-03-22T00:51:35.236Z,101835.89
2019-03-22T00:52:39.915Z,101839.05
2019-03-22T00:53:44.534Z,101834.11
2019-03-22T00:54:49.609Z,101835.88
2019-03-22T00:55:54.054Z,101837.72
2019-03-22T00:56:58.585Z,101836.38
2019-03-22T00:58:03.067Z,101835.49
2019-03-22T00:59:07.591Z,101839.55
2019-03-22T01:00:12.587Z,101831.02
2019-03-22T01:01:17.118Z,101838.25
2019-03-22T01:02:22.050Z,101836.45
2019-03-22T01:03:26.773Z,101848.59
2019-03-22T01:04:31.791Z,101846.80
2019-03-22T01:05:36.872Z,101841.42
2019-03-22T01:06:41.321Z,101839.63
2019-03-22T01:07:45.834Z,101837.83
2019-03-22T01:08:50.458Z,101843.72
2019-03-22T01:09:54.974Z,101844.16
2019-03-22T01:11:00.382Z,101841.47
2019-03-22T01:12:04.922Z,101842.83
2019-03-22T01:13:09.791Z,101841.05
2019-03-22T01:14:14.246Z,101845.53
2019-03-22T01:15:19.154Z,101839.70
2019-03-22T01:16:23.962Z,101836.11
2019-03-22T01:17:28.567Z,101835.70
2019-03-22T01:18:33.278Z,101837.05
2019-03-22T01:19:37.986Z,101831.66
2019-03-22T01:20:42.435Z,101829.42
2019-03-22T01:21:47.043Z,101834.81
2019-03-22T01:22:51.866Z,101831.67
2019-03-22T01:23:56.596Z,101830.37
2019-03-22T01:25:01.031Z,101826.33
2019-03-22T01:26:05.811Z,101825.88
2019-03-22T01:27:10.630Z,101822.73
2019-03-22T01:28:15.084Z,101815.56
2019-03-22T01:29:20.083Z,101818.25
2019-03-22T01:30:24.530Z,101812.87
2019-03-22T01:31:29.331Z,101816.47
2019-03-22T01:32:33.846Z,101817.41
2019-03-22T01:33:38.647Z,101816.52
2019-03-22T01:34:43.223Z,101816.97
2019-03-22T01:35:47.973Z,101816.97
2019-03-22T01:36:53.207Z,101821.92
2019-03-22T01:37:58.015Z,101812.94
2019-03-22T01:39:02.555Z,101818.33
2019-03-22T01:40:07.978Z,101812.53
2019-03-22T01:41:12.532Z,101818.82
2019-03-22T01:42:17.605Z,101820.18
2019-03-22T01:43:22.124Z,101819.73
2019-03-22T01:44:26.770Z,101818.84
2019-03-22T01:45:31.854Z,101817.53
2019-03-22T01:46:36.399Z,101819.33
2019-03-22T01:47:40.918Z,101820.23
2019-03-22T01:48:45.614Z,101817.55
2019-03-22T01:49:50.131Z,101814.41
2019-03-22T01:50:54.938Z,101814.41
2019-03-22T01:51:59.755Z,101811.72
2019-03-22T01:53:04.348Z,101812.66
2019-03-22T01:54:08.830Z,101812.20
2019-03-22T01:55:14.212Z,101790.73
2019-03-22T01:56:18.795Z,101807.27
2019-03-22T01:57:23.825Z,101809.52
2019-03-22T01:58:28.272Z,101807.27
2019-03-22T01:59:33.103Z,101808.62
2019-03-22T02:00:37.939Z,101809.52
2019-03-22T02:01:42.574Z,101804.13
2019-03-22T02:02:47.450Z,101807.73
2019-03-22T02:03:52.264Z,101814.47
2019-03-22T02:04:57.066Z,101807.32
2019-03-22T02:06:02.334Z,101807.33
2019-03-22T02:07:07.334Z,101810.02
2019-03-22T02:08:11.876Z,101812.77
2019-03-22T02:09:16.404Z,101807.83
2019-03-22T02:10:21.199Z,101810.98
2019-03-22T02:11:25.821Z,101811.42
2019-03-22T02:12:30.435Z,101809.67
2019-03-22T02:13:35.458Z,101810.13
2019-03-22T02:14:39.872Z,101811.47
2019-03-22T02:15:44.787Z,101809.23
2019-03-22T02:16:49.595Z,101811.92
2019-03-22T02:17:54.320Z,101806.98
2019-03-22T02:18:59.235Z,101809.67
2019-03-22T02:20:04.480Z,101809.67
2019-03-22T02:21:09.023Z,101816.41
2019-03-22T02:22:13.817Z,101814.61
2019-03-22T02:23:18.831Z,101815.95
2019-03-22T02:24:23.743Z,101812.38
2019-03-22T02:25:28.306Z,101814.16
2019-03-22T02:26:33.076Z,101809.67
2019-03-22T02:27:38.247Z,101817.31
2019-03-22T02:28:42.739Z,101822.25
2019-03-22T02:29:47.186Z,101822.25
2019-03-22T02:30:52.019Z,101814.62
2019-03-22T02:31:56.773Z,101818.66
2019-03-22T02:33:01.604Z,101814.62
2019-03-22T02:34:06.816Z,101817.31
2019-03-22T02:35:26.957Z,101811.92
2019-03-22T02:36:17.644Z,101812.86
2019-03-22T02:37:22.658Z,101812.41
2019-03-22T02:38:27.138Z,101815.11
2019-03-22T02:39:32.025Z,101810.17
2019-03-22T02:40:37.167Z,101808.38
2019-03-22T02:41:41.892Z,101811.97
2019-03-22T02:42:46.608Z,101808.83
2019-03-22T02:43:54.622Z,101813.31
2019-03-22T02:44:58.141Z,101811.52
2019-03-22T02:46:02.840Z,101810.63
2019-03-22T02:47:07.601Z,101810.66
2019-03-22T02:48:12.046Z,101811.52
2019-03-22T02:49:16.671Z,101807.97
2019-03-22T02:50:21.609Z,101811.11
2019-03-22T02:51:26.234Z,101813.81
2019-03-22T02:52:31.109Z,101814.26
2019-03-22T02:53:35.805Z,101816.95
2019-03-22T02:54:40.739Z,101819.20
2019-03-22T02:55:45.397Z,101817.41
2019-03-22T02:56:50.128Z,101816.95
2019-03-22T02:57:54.968Z,101809.80
2019-03-22T02:58:59.813Z,101811.16
2019-03-22T03:00:05.555Z,101808.91
2019-03-22T03:01:10.685Z,101810.71
2019-03-22T03:02:15.127Z,101805.36
2019-03-22T03:03:19.740Z,101804.47
2019-03-22T03:04:24.595Z,101801.78
2019-03-22T03:05:29.108Z,101804.91
2019-03-22T03:06:33.679Z,101810.30
2019-03-22T03:07:38.076Z,101810.30
2019-03-22T03:08:43.010Z,101809.89
2019-03-22T03:09:47.709Z,101812.58
2019-03-22T03:10:52.317Z,101818.86
2019-03-22T03:11:57.007Z,101819.75
2019-03-22T03:13:01.783Z,101814.82
2019-03-22T03:14:06.297Z,101813.06
2019-03-22T03:15:11.394Z,101813.95
2019-03-22T03:16:16.081Z,101813.52
2019-03-22T03:17:21.052Z,101813.52
2019-03-22T03:18:25.494Z,101813.51
2019-03-22T03:19:30.024Z,101815.75
2019-03-22T03:20:34.472Z,101813.95
2019-03-22T03:21:38.964Z,101816.65
2019-03-22T03:22:43.587Z,101817.13
2019-03-22T03:23:48.905Z,101813.09
2019-03-22T03:24:53.981Z,101815.34
2019-03-22T03:25:58.700Z,101813.99
2019-03-22T03:27:03.571Z,101809.50
2019-03-22T03:28:08.082Z,101809.95
2019-03-22T03:29:12.524Z,101812.20
2019-03-22T03:30:18.483Z,101805.91
2019-03-22T03:31:23.140Z,101809.95
2019-03-22T03:32:27.922Z,101813.09
2019-03-22T03:33:32.689Z,101808.16
2019-03-22T03:34:37.389Z,101804.16
2019-03-22T03:35:42.188Z,101806.84
2019-03-22T03:36:47.305Z,101806.84
2019-03-22T03:37:51.833Z,101803.25
2019-03-22T03:38:56.829Z,101809.98
2019-03-22T03:40:01.565Z,101813.56
2019-03-22T03:41:06.892Z,101790.75
2019-03-22T03:42:12.033Z,101812.25
2019-03-22T03:43:16.794Z,101812.25
2019-03-22T03:44:21.251Z,101819.87
2019-03-22T03:45:36.899Z,101815.39
2019-03-22T03:46:41.566Z,101822.11
2019-03-22T03:47:46.174Z,101819.42
2019-03-22T03:48:50.537Z,101819.42
2019-03-22T03:49:55.394Z,101823.91
2019-03-22T03:51:00.261Z,101823.91
2019-03-22T03:52:05.782Z,101817.63
2019-03-22T03:53:10.294Z,101821.22
2019-03-22T03:54:14.658Z,101828.39
2019-03-22T03:55:19.011Z,101817.18
2019-03-22T03:56:23.703Z,101820.31
2019-03-22T03:57:28.308Z,101823.00
2019-03-22T03:58:32.991Z,101826.17
2019-03-22T03:59:37.681Z,101826.17
2019-03-22T04:00:42.645Z,101823.03
2019-03-22T04:01:47.339Z,101820.80
2019-03-22T04:02:51.760Z,101824.38
2019-03-22T04:03:56.528Z,101823.03
2019-03-22T04:05:01.136Z,101825.72
2019-03-22T04:06:05.718Z,101820.34
2019-03-22T04:07:10.434Z,101817.20
2019-03-22T04:08:15.193Z,101811.81
2019-03-22T04:09:19.801Z,101821.23
2019-03-22T04:10:24.566Z,101818.09
2019-03-22T04:11:29.185Z,101817.65
2019-03-22T04:12:33.567Z,101814.54
2019-03-22T04:13:38.184Z,101811.40
2019-03-22T04:14:42.804Z,101816.78
2019-03-22T04:15:47.668Z,101814.98
2019-03-22T04:16:52.126Z,101815.42
2019-03-22T04:17:56.662Z,101814.08
2019-03-22T04:19:01.586Z,101810.49
2019-03-22T04:20:06.281Z,101812.28
2019-03-22T04:21:10.795Z,101814.97
2019-03-22T04:22:15.425Z,101818.59
2019-03-22T04:23:20.433Z,101819.48
2019-03-22T04:24:24.957Z,101816.34
2019-03-22T04:25:30.047Z,101815.90
2019-03-22T04:26:34.762Z,101813.66
2019-03-22T04:27:39.607Z,101817.69
2019-03-22T04:28:45.022Z,101812.77
2019-03-22T04:29:49.900Z,101805.14
2019-03-22T04:30:54.392Z,101812.31
2019-03-22T04:31:59.195Z,101808.27
2019-03-22T04:33:06.371Z,101809.17
2019-03-22T04:34:10.067Z,101816.78
2019-03-22T04:35:14.872Z,101806.02
2019-03-22T04:36:19.415Z,101812.30
2019-03-22T04:37:23.916Z,101808.72
2019-03-22T04:38:28.370Z,101810.54
2019-03-22T04:39:33.438Z,101808.75
2019-03-22T04:40:38.149Z,101809.64
2019-03-22T04:41:42.982Z,101810.09
2019-03-22T04:42:47.542Z,101812.32
2019-03-22T04:43:52.070Z,101812.77
2019-03-22T04:44:56.915Z,101809.18
2019-03-22T04:46:02.139Z,101812.34
2019-03-22T04:47:07.455Z,101811.45
2019-03-22T04:48:27.076Z,101810.11
2019-03-22T04:49:34.051Z,101812.34
2019-03-22T04:50:42.004Z,101810.54
2019-03-22T04:51:47.322Z,101811.88
2019-03-22T04:52:53.098Z,101815.50
2019-03-22T04:54:01.784Z,101814.16
2019-03-22T04:55:06.819Z,101812.36
2019-03-22T04:56:14.570Z,101804.30
2019-03-22T04:57:20.351Z,101810.11
2019-03-22T04:58:27.482Z,101809.21
2019-03-22T04:59:33.872Z,101805.17
2019-03-22T05:00:39.638Z,101806.96
2019-03-22T05:01:47.261Z,101803.86
2019-03-22T05:02:52.956Z,101802.95
2019-03-22T05:03:59.243Z,101809.22
2019-03-22T05:05:05.037Z,101806.53
2019-03-22T05:06:11.732Z,101799.80
2019-03-22T05:07:17.786Z,101790.39
2019-03-22T05:08:25.190Z,101800.25
2019-03-22T05:09:32.331Z,101810.10
2019-03-22T05:10:38.274Z,101799.37
2019-03-22T05:11:44.679Z,101801.14
2019-03-22T05:12:50.424Z,101802.97
2019-03-22T05:13:57.836Z,101809.20
2019-03-22T05:15:03.015Z,101804.75
2019-03-22T05:16:11.704Z,101799.37
2019-03-22T05:17:17.122Z,101809.67
2019-03-22T05:18:22.447Z,101805.64
2019-03-22T05:19:29.930Z,101806.08
2019-03-22T05:20:36.149Z,101811.45
2019-03-22T05:21:41.463Z,101813.69
2019-03-22T05:22:47.207Z,101816.37
2019-03-22T05:23:54.576Z,101814.16
2019-03-22T05:25:01.931Z,101817.27
2019-03-22T05:26:06.744Z,101815.03
2019-03-22T05:27:12.952Z,101817.30
2019-03-22T05:28:17.875Z,101810.13
2019-03-22T05:29:30.518Z,101816.41
2019-03-22T05:31:24.676Z,101820.88
2019-03-22T05:32:29.186Z,101820.88
2019-03-22T05:33:33.880Z,101824.46
2019-03-22T05:34:38.836Z,101824.02
2019-03-22T05:35:43.189Z,101828.49
2019-03-22T05:36:47.623Z,101823.12
2019-03-22T05:37:51.999Z,101825.78
2019-03-22T05:38:56.936Z,101826.67
2019-03-22T05:40:01.624Z,101823.99
2019-03-22T05:41:06.311Z,101825.34
2019-03-22T05:42:10.754Z,101819.97
2019-03-22T05:43:15.386Z,101826.70
2019-03-22T05:44:20.115Z,101828.50
2019-03-22T05:45:25.223Z,101827.16
2019-03-22T05:46:30.087Z,101835.22
2019-03-22T05:47:34.776Z,101826.23
2019-03-22T05:48:39.466Z,101836.08
2019-03-22T05:49:44.405Z,101831.16
2019-03-22T05:50:48.991Z,101841.02
2019-03-22T05:51:53.758Z,101838.33
2019-03-22T05:52:58.392Z,101841.02
2019-03-22T05:54:03.123Z,101841.47
2019-03-22T05:55:08.379Z,101848.19
2019-03-22T05:56:13.162Z,101844.61
2019-03-22T05:57:17.814Z,101846.86
2019-03-22T05:58:22.544Z,101847.75
2019-03-22T05:59:27.563Z,101850.44
2019-03-22T06:00:32.375Z,101846.86
2019-03-22T06:01:37.367Z,101847.75
2019-03-22T06:02:42.106Z,101842.83
2019-03-22T06:03:46.862Z,101847.28
2019-03-22T06:04:51.962Z,101849.07
2019-03-22T06:05:56.689Z,101848.62
2019-03-22T06:07:01.067Z,101850.42
2019-03-22T06:08:06.218Z,101850.42
2019-03-22T06:09:11.555Z,101847.73
2019-03-22T06:10:16.400Z,101848.63
2019-03-22T06:11:21.304Z,101853.11
2019-03-22T06:12:25.738Z,101847.30
2019-03-22T06:13:31.096Z,101852.22
2019-03-22T06:14:36.175Z,101846.85
2019-03-22T06:15:40.895Z,101854.89
2019-03-22T06:16:45.642Z,101855.34
2019-03-22T06:17:51.880Z,101854.02
2019-03-22T06:18:57.190Z,101858.05
2019-03-22T06:20:02.166Z,101850.42
2019-03-22T06:21:06.755Z,101858.50
2019-03-22T06:22:11.386Z,101857.13
2019-03-22T06:23:15.764Z,101858.92
2019-03-22T06:24:22.332Z,101861.16
2019-03-22T06:25:26.817Z,101857.59
2019-03-22T06:26:31.931Z,101867.45
2019-03-22T06:27:36.950Z,101858.92
2019-03-22T06:28:41.635Z,101862.52
2019-03-22T06:29:54.029Z,101862.92
2019-03-22T06:30:55.682Z,101869.19
2019-03-22T06:32:00.048Z,101866.48
2019-03-22T06:33:04.489Z,101865.56
2019-03-22T06:34:08.926Z,101860.13
2019-03-22T06:35:13.460Z,101858.30
2019-03-22T06:36:18.655Z,101861.86
2019-03-22T06:37:23.524Z,101868.14
2019-03-22T06:38:27.964Z,101864.97
2019-03-22T06:39:32.655Z,101860.89
2019-03-22T06:40:37.037Z,101868.48
2019-03-22T06:41:41.824Z,101872.47
2019-03-22T06:42:46.522Z,101869.78
2019-03-22T06:43:51.137Z,101863.91
2019-03-22T06:44:56.009Z,101861.20
2019-03-22T06:46:00.690Z,101868.80
2019-03-22T06:47:05.942Z,101867.89
2019-03-22T06:48:10.942Z,101865.65
2019-03-22T06:49:15.288Z,101861.61
2019-03-22T06:50:19.742Z,101867.00
2019-03-22T06:51:24.350Z,101866.55
2019-03-22T06:52:29.066Z,101871.48
2019-03-22T06:53:33.442Z,101872.34
2019-03-22T06:54:38.453Z,101876.83
2019-03-22T06:55:43.283Z,101875.02
2019-03-22T06:56:47.639Z,101874.08
2019-03-22T06:57:52.452Z,101874.97
2019-03-22T06:58:56.898Z,101877.21
2019-03-22T07:00:06.893Z,101878.07
2019-03-22T07:01:08.175Z,101880.31
2019-03-22T07:02:12.961Z,101880.76
2019-03-22T07:03:17.983Z,101884.80
2019-03-22T07:04:22.818Z,101886.59
2019-03-22T07:05:27.682Z,101884.36
2019-03-22T07:06:32.646Z,101891.55
2019-03-22T07:07:37.199Z,101891.09
2019-03-22T07:08:41.704Z,101888.00
2019-03-22T07:09:47.764Z,101895.63
2019-03-22T07:10:52.255Z,101893.84
2019-03-22T07:11:57.095Z,101888.01
2019-03-22T07:13:01.807Z,101894.30
2019-03-22T07:14:06.515Z,101890.25
2019-03-22T07:15:12.939Z,101885.70
2019-03-22T07:16:17.740Z,101887.09
2019-03-22T07:17:22.184Z,101885.36
2019-03-22T07:18:27.208Z,101889.84
2019-03-22T07:19:31.932Z,101884.95
2019-03-22T07:20:36.763Z,101880.91
2019-03-22T07:21:42.225Z,101892.59
2019-03-22T07:22:47.252Z,101890.34
2019-03-22T07:23:51.776Z,101886.70
2019-03-22T07:24:56.545Z,101889.84
2019-03-22T07:26:01.347Z,101887.56
2019-03-22T07:27:06.184Z,101888.91
2019-03-22T07:28:10.962Z,101886.61
2019-03-22T07:29:15.818Z,101883.46
2019-03-22T07:30:22.493Z,101879.86
2019-03-22T07:31:27.214Z,101880.27
2019-03-22T07:32:31.988Z,101884.75
2019-03-22T07:33:36.435Z,101885.63
2019-03-22T07:34:40.968Z,101881.54
2019-03-22T07:35:45.428Z,101887.88
2019-03-22T07:36:49.902Z,101889.23
2019-03-22T07:37:54.620Z,101885.63
2019-03-22T07:38:59.156Z,101888.33
2019-03-22T07:40:04.119Z,101883.84
2019-03-22T07:41:08.655Z,101884.70
2019-03-22T07:42:13.032Z,101881.10
2019-03-22T07:43:17.814Z,101877.05
2019-03-22T07:44:22.255Z,101878.38
2019-03-22T07:45:26.702Z,101876.94
2019-03-22T07:46:31.163Z,101874.67
2019-03-22T07:47:35.704Z,101879.16
2019-03-22T07:48:40.532Z,101874.23
2019-03-22T07:49:45.059Z,101875.13
2019-03-22T07:50:49.522Z,101871.98
2019-03-22T07:51:54.279Z,101869.27
2019-03-22T07:52:58.737Z,101866.06
2019-03-22T07:54:03.979Z,101862.47
2019-03-22T07:55:08.778Z,101855.25
2019-03-22T07:56:13.337Z,101857.91
2019-03-22T07:57:18.068Z,101853.41
2019-03-22T07:58:22.962Z,101849.37
2019-03-22T07:59:27.422Z,101846.25
2019-03-22T08:00:32.219Z,101853.41
2019-03-22T08:01:36.788Z,101852.93
2019-03-22T08:02:41.234Z,101845.33
2019-03-22T08:03:46.274Z,101851.18
2019-03-22T08:04:50.714Z,101845.33
2019-03-22T08:05:55.248Z,101848.43
2019-03-22T08:07:01.314Z,101845.20
2019-03-22T08:08:05.855Z,101843.77
2019-03-22T08:09:10.371Z,101845.48
2019-03-22T08:10:15.137Z,101840.08
2019-03-22T08:11:20.087Z,101849.05
2019-03-22T08:12:25.065Z,101837.83
2019-03-22T08:13:29.801Z,101836.91
2019-03-22T08:14:34.284Z,101840.06
2019-03-22T08:15:38.795Z,101835.48
2019-03-22T08:16:43.491Z,101838.55
2019-03-22T08:17:48.175Z,101833.13
2019-03-22T08:18:52.789Z,101834.83
2019-03-22T08:19:57.548Z,101832.52
2019-03-22T08:21:02.172Z,101832.05
2019-03-22T08:22:07.106Z,101832.91
2019-03-22T08:23:22.230Z,101838.70
2019-03-22T08:24:26.668Z,101831.83
2019-03-22T08:25:32.469Z,101831.74
2019-03-22T08:26:37.239Z,101832.97
2019-03-22T08:27:41.607Z,101832.44
2019-03-22T08:28:46.535Z,101828.44
2019-03-22T08:29:51.483Z,101830.59
2019-03-22T08:30:55.855Z,101832.31
2019-03-22T08:32:00.872Z,101833.60
2019-03-22T08:33:05.398Z,101832.59
2019-03-22T08:34:10.247Z,101822.94
2019-03-22T08:35:14.926Z,101822.94
2019-03-22T08:36:19.456Z,101825.64
2019-03-22T08:37:23.944Z,101822.46
2019-03-22T08:38:28.258Z,101821.41
2019-03-22T08:39:32.873Z,101819.59
2019-03-22T08:40:37.235Z,101815.03
2019-03-22T08:41:41.927Z,101817.09
2019-03-22T08:42:46.562Z,101814.74
2019-03-22T08:43:51.154Z,101813.71
2019-03-22T08:44:55.601Z,101812.34
2019-03-22T08:46:00.018Z,101811.31
2019-03-22T08:47:05.027Z,101813.53
2019-03-22T08:48:10.081Z,101810.61
2019-03-22T08:49:14.929Z,101814.19
2019-03-22T08:50:19.785Z,101813.61
2019-03-22T08:51:24.324Z,101806.63
2019-03-22T08:52:28.868Z,101804.69
2019-03-22T08:53:33.631Z,101806.07
2019-03-22T08:54:38.507Z,101810.52
2019-03-22T08:55:43.444Z,101809.03
2019-03-22T08:56:48.237Z,101811.56
2019-03-22T08:57:53.006Z,101809.21
2019-03-22T08:59:52.944Z,101804.34
2019-03-22T09:00:58.298Z,101803.47
2019-03-22T09:02:02.876Z,101802.84
2019-03-22T09:03:08.263Z,101795.56
2019-03-22T09:04:14.423Z,101798.10
2019-03-22T09:05:19.533Z,101801.54
2019-03-22T09:06:24.414Z,101792.92
2019-03-22T09:07:29.295Z,101795.94
2019-03-22T09:08:34.407Z,101794.88
2019-03-22T09:09:41.763Z,101797.44
2019-03-22T09:10:45.942Z,101792.82
2019-03-22T09:11:50.320Z,101794.48
2019-03-22T09:12:55.053Z,101792.55
2019-03-22T09:13:59.991Z,101794.09
2019-03-22T09:15:04.887Z,101790.30
2019-03-22T09:16:09.305Z,101789.70
2019-03-22T09:17:14.517Z,101787.69
2019-03-22T09:18:18.974Z,101791.27
2019-03-22T09:19:23.738Z,101786.66
2019-03-22T09:20:28.734Z,101791.47
2019-03-22T09:21:33.404Z,101787.48
2019-03-22T09:22:37.829Z,101781.00
2019-03-22T09:23:42.449Z,101782.78
2019-03-22T09:24:47.385Z,101778.11
2019-03-22T09:25:51.822Z,101771.22
2019-03-22T09:26:56.566Z,101772.40
2019-03-22T09:28:01.235Z,101766.86
2019-03-22T09:29:06.005Z,101768.04
2019-03-22T09:30:11.319Z,101765.53
2019-03-22T09:31:16.309Z,101759.92
2019-03-22T09:32:21.283Z,101755.69
2019-03-22T09:33:25.621Z,101747.83
2019-03-22T09:34:34.014Z,101739.02
2019-03-22T09:35:36.157Z,101742.91
2019-03-22T09:36:41.025Z,101740.42
2019-03-22T09:37:45.895Z,101739.67
2019-03-22T09:38:50.340Z,101737.30
2019-03-22T09:39:54.704Z,101733.95
2019-03-22T09:40:59.399Z,101736.42
2019-03-22T09:42:03.976Z,101731.13
2019-03-22T09:43:08.797Z,101736.88
2019-03-22T09:44:13.555Z,101728.33
2019-03-22T09:45:18.052Z,101725.02
2019-03-22T09:46:22.456Z,101733.73
2019-03-22T09:47:26.830Z,101727.23
2019-03-22T09:48:31.439Z,101730.66
2019-03-22T09:49:36.055Z,101729.55
2019-03-22T09:50:40.843Z,101733.38
2019-03-22T09:51:45.270Z,101727.23
2019-03-22T09:52:49.739Z,101728.66
2019-03-22T09:53:54.259Z,101732.42
2019-03-22T09:55:12.190Z,101725.95
2019-03-22T09:56:05.041Z,101728.41
2019-03-22T09:57:09.971Z,101729.72
2019-03-22T09:58:14.472Z,101723.66
2019-03-22T09:59:19.469Z,101723.93
2019-03-22T10:00:34.292Z,101718.67
2019-03-22T10:01:39.360Z,101714.34
2019-03-22T10:02:44.219Z,101713.59
2019-03-22T10:03:48.962Z,101711.52
2019-03-22T10:04:54.105Z,101711.31
2019-03-22T10:05:58.870Z,101712.95
2019-03-22T10:07:03.255Z,101712.55
2019-03-22T10:08:08.087Z,101707.61
2019-03-22T10:09:12.955Z,101714.20
2019-03-22T10:10:17.704Z,101706.50
2019-03-22T10:11:22.304Z,101706.72
2019-03-22T10:12:27.058Z,101704.30
2019-03-22T10:13:31.780Z,101708.45
2019-03-22T10:14:36.207Z,101708.72
2019-03-22T10:15:41.095Z,101710.66
2019-03-22T10:16:47.609Z,101704.30
2019-03-22T10:17:52.084Z,101699.49
2019-03-22T10:18:56.646Z,101701.27
2019-03-22T10:20:01.631Z,101700.63
2019-03-22T10:21:06.108Z,101692.83
2019-03-22T10:22:10.503Z,101690.87
2019-03-22T10:23:15.434Z,101694.67
2019-03-22T10:24:20.044Z,101692.93
2019-03-22T10:25:25.047Z,101690.70
2019-03-22T10:26:29.664Z,101675.00
2019-03-22T10:27:34.349Z,101676.98
2019-03-22T10:28:39.716Z,101690.77
2019-03-22T10:29:44.185Z,101688.22
2019-03-22T10:30:48.668Z,101686.63
2019-03-22T10:31:53.621Z,101686.70
2019-03-22T10:32:58.649Z,101683.63
2019-03-22T10:34:03.099Z,101676.99
2019-03-22T10:35:08.416Z,101670.23
2019-03-22T10:36:13.192Z,101674.92
2019-03-22T10:37:18.000Z,101678.54
2019-03-22T10:38:31.012Z,101673.77
2019-03-22T10:39:28.864Z,101670.43
2019-03-22T10:40:33.721Z,101675.19
2019-03-22T10:41:38.155Z,101672.33
2019-03-22T10:42:42.925Z,101667.99
2019-03-22T10:43:47.762Z,101670.11
2019-03-22T10:44:52.501Z,101667.97
2019-03-22T10:45:57.368Z,101670.50
2019-03-22T10:47:02.422Z,101668.22
2019-03-22T10:48:07.043Z,101667.03
2019-03-22T10:49:11.587Z,101665.59
2019-03-22T10:50:16.667Z,101664.13
2019-03-22T10:51:21.938Z,101665.42
2019-03-22T10:52:26.570Z,101661.66
2019-03-22T10:53:31.761Z,101658.27
2019-03-22T10:54:37.010Z,101660.87
2019-03-22T10:55:41.681Z,101659.30
2019-03-22T10:56:47.571Z,101652.77
2019-03-22T10:57:55.331Z,101655.70
2019-03-22T10:58:59.191Z,101652.72
2019-03-22T11:00:04.347Z,101648.95
2019-03-22T11:01:09.065Z,101656.02
2019-03-22T11:02:13.516Z,101654.92
2019-03-22T11:03:18.392Z,101657.55
2019-03-22T11:04:23.159Z,101656.12
2019-03-22T11:05:27.773Z,101648.24
2019-03-22T11:06:32.221Z,101644.48
2019-03-22T11:07:36.998Z,101644.78
2019-03-22T11:08:41.397Z,101648.36
2019-03-22T11:09:46.104Z,101644.52
2019-03-22T11:10:50.719Z,101647.97
2019-03-22T11:11:55.276Z,101647.75
2019-03-22T11:13:00.218Z,101644.02
2019-03-22T11:14:05.021Z,101644.36
2019-03-22T11:15:10.044Z,101642.84
2019-03-22T11:16:14.925Z,101639.44
2019-03-22T11:17:19.942Z,101641.70
2019-03-22T11:18:24.422Z,101644.36
2019-03-22T11:19:28.944Z,101644.52
2019-03-22T11:20:33.656Z,101641.55
2019-03-22T11:21:38.427Z,101641.06
2019-03-22T11:22:43.030Z,101637.77
2019-03-22T11:23:47.487Z,101637.11
2019-03-22T11:24:52.193Z,101631.70
2019-03-22T11:26:03.820Z,101633.00
2019-03-22T11:27:03.093Z,101631.88
2019-03-22T11:28:07.815Z,101627.99
2019-03-22T11:29:12.853Z,101632.24
2019-03-22T11:30:17.845Z,101626.53
2019-03-22T11:31:28.306Z,101625.38
2019-03-22T11:32:28.855Z,101628.78
2019-03-22T11:33:33.658Z,101623.52
2019-03-22T11:34:38.315Z,101623.17
2019-03-22T11:35:43.202Z,101616.97
2019-03-22T11:36:48.024Z,101620.28
2019-03-22T11:37:52.471Z,101617.67
2019-03-22T11:38:57.185Z,101618.88
2019-03-22T11:40:01.877Z,101620.58
2019-03-22T11:41:06.994Z,101619.41
2019-03-22T11:42:12.258Z,101611.44
2019-03-22T11:43:17.047Z,101612.13
2019-03-22T11:44:21.771Z,101602.28
2019-03-22T11:45:26.695Z,101606.69
2019-03-22T11:46:31.174Z,101599.59
2019-03-22T11:47:36.486Z,101604.47
2019-03-22T11:48:41.297Z,101601.48
2019-03-22T11:49:47.420Z,101600.52
2019-03-22T11:50:52.121Z,101600.43
2019-03-22T11:51:56.491Z,101597.57
2019-03-22T11:53:01.251Z,101595.23
2019-03-22T11:54:05.806Z,101593.37
2019-03-22T11:55:11.144Z,101593.77
2019-03-22T11:56:15.666Z,101594.17
2019-03-22T11:57:20.575Z,101598.61
2019-03-22T11:58:25.348Z,101592.16
2019-03-22T11:59:29.808Z,101599.02
2019-03-22T12:00:34.335Z,101593.53
2019-03-22T12:01:38.862Z,101594.38
2019-03-22T12:02:43.946Z,101594.12
2019-03-22T12:03:48.487Z,101587.10
2019-03-22T12:04:52.980Z,101588.30
2019-03-22T12:05:57.501Z,101587.65
2019-03-22T12:07:02.164Z,101584.62
2019-03-22T12:08:06.686Z,101591.14
2019-03-22T12:09:11.541Z,101590.39
2019-03-22T12:10:17.011Z,101582.36
2019-03-22T12:11:21.655Z,101581.38
2019-03-22T12:12:26.469Z,101588.08
2019-03-22T12:13:31.289Z,101578.47
2019-03-22T12:14:36.083Z,101576.20
2019-03-22T12:15:41.084Z,101582.19
2019-03-22T12:16:45.958Z,101574.83
2019-03-22T12:17:50.497Z,101574.34
2019-03-22T12:18:55.293Z,101573.38
2019-03-22T12:19:59.818Z,101571.59
2019-03-22T12:21:04.583Z,101573.38
2019-03-22T12:22:09.024Z,101567.48
2019-03-22T12:23:13.717Z,101561.98